Watertown International Airport
KART : now visible

Airfield :











YOU CAN JOIN US ON...

 
LOGIN :

Register | Disclaimer

   EN    FR    IT 

 









Legend :    VFR   Marginal VFR   IFR   Intensive IFR   Very Intensive IFR
Visi :
Ceiling :
>= 8 km
>= 3000ft
5 to 8 km
1000 to 3000 ft
1500m to 5 km
500 to 1000 ft
800 to 1500m
200 to 500 ft
< 800m
< 200 ft
Symbols :   Thunderstorms  Fog  Heavy snow  Heavy precipitations  Wind > 20 kt






- Airport Elevation : 325 ft
- IATA code : ART


KART - Watertown International

CURRENT METAR :
  • 171056Z AUTO 05008KT 10SM CLR 02/M01 A3018 RMK AO2 SLP223 T00221006

EXPIRED METARs :
  • 170956Z AUTO 05007KT 10SM CLR 02/M01 A3019 RMK AO2 SLP227 T00171011
  • 170856Z AUTO 07006KT 10SM CLR 02/M01 A3019 RMK AO2 SLP223 T00171006 51003
  • 170756Z AUTO 06007KT 10SM CLR 02/M01 A3019 RMK AO2 SLP223 T00221006
  • 170656Z AUTO 06006KT 10SM CLR 02/M01 A3018 RMK AO2 SLP221 T00171006

TAF KART
Valid from the 17 at 06:00 until the 18 at 06:00 UTC


170531Z 1706/1806 07007KT P6SM FEW250
FM172300 07005KT 6SM BR VCSH OVC040
FM180000 09005KT 5SM BR VCSH OVC025
FM180300 09005KT 5SM -SHRA BR OVC015
FM180500 11009KT 6SM BR VCSH OVC020
KZBW FIR / North America



MET'MAP, your aeronautical weather chart ! - Copyright ORBIFLY December 2007 - Disclaimer

ORBIFLY MET'MAP TEAM :

Programming & Development : Alexandra Zaïnal
Original concept : Baudouin d'Aumeries
Technical & hardware support : Manuel Goepfert
Assistance : Marc-Olivier Méhu




SOURCES & CREDITS :

   NOAA       Earth
Advisory